Terminal Aerodrome Forecast
Issued by NWS

Home | Current Version | Previous Version | Text Only | Print | Product List | Glossary On
Versions: 1 2 3 4 5 6 7 8 9 10 11 12 13 14 15
000
FTUS43 KPAH 260711 AAA
TAFCGI
TAF AMD
KCGI 260711Z 2607/2706 VRB02KT 1/4SM FZFG VV002
      TEMPO 2608/2610 3SM BR BKN120
     FM261000 VRB03KT 5SM BR BKN050
     FM261200 35012KT P6SM OVC015
     FM270000 35010KT P6SM BKN025=

USA.gov is the U.S. government's official web portal to all federal, state and local government web resources and services.